Time;durP1;ratioP1;P1;durP2;ratioP2;P2;SDS_P1;SDS_P2;PMS_P1;PMS_P2;Temp;Humidity;BMP_temperature;BMP_pressure;BME280_temperature;BME280_humidity;BME280_pressure;Samples;Min_cycle;Max_cycle;Signal;HPM_P1;HPM_P2
2023/03/24 00:01:48;;;;;;;2.25;1.30;;;11.40;99.90;;;;;;4955941;28;20102;-83
2023/03/24 00:04:14;;;;;;;1.58;1.02;;;11.30;99.90;;;;;;4954171;28;20033;-82
2023/03/24 00:06:39;;;;;;;2.65;1.30;;;11.40;99.90;;;;;;4969251;28;20034;-81
2023/03/24 00:09:05;;;;;;;1.48;1.05;;;11.30;99.90;;;;;;4969289;28;20109;-82
2023/03/24 00:11:34;;;;;;;2.78;0.88;;;11.30;99.90;;;;;;4990867;28;20026;-82
2023/03/24 00:14:01;;;;;;;2.70;1.48;;;11.40;99.90;;;;;;4973219;28;20053;-82
2023/03/24 00:16:27;;;;;;;3.72;1.08;;;11.40;99.90;;;;;;4969852;28;20553;-83
2023/03/24 00:18:52;;;;;;;5.30;1.75;;;11.40;99.90;;;;;;4972557;28;20042;-82
2023/03/24 00:21:20;;;;;;;2.78;1.40;;;11.40;99.90;;;;;;4985657;28;20393;-82
2023/03/24 00:23:46;;;;;;;2.70;1.60;;;11.30;99.90;;;;;;4971297;28;20631;-82
2023/03/24 00:26:14;;;;;;;3.05;1.65;;;11.40;99.90;;;;;;4970313;28;20393;-82
2023/03/24 00:28:41;;;;;;;4.22;1.77;;;11.40;99.90;;;;;;4969629;28;20030;-82
2023/03/24 00:31:07;;;;;;;2.13;1.42;;;11.40;99.90;;;;;;4954270;28;20030;-82
2023/03/24 00:33:34;;;;;;;4.05;1.52;;;11.40;99.90;;;;;;4985589;28;20041;-82
2023/03/24 00:36:00;;;;;;;5.32;1.35;;;11.40;99.90;;;;;;4958882;28;20406;-82
2023/03/24 00:38:26;;;;;;;3.97;1.17;;;11.40;99.90;;;;;;4983710;28;20402;-83
2023/03/24 00:40:52;;;;;;;5.28;0.70;;;11.40;99.90;;;;;;4958631;28;20026;-83
2023/03/24 00:43:18;;;;;;;3.55;1.38;;;11.40;99.90;;;;;;4973864;28;20033;-82
2023/03/24 00:45:46;;;;;;;2.97;2.13;;;11.40;99.90;;;;;;4975260;28;20053;-81
2023/03/24 00:48:23;;;;;;;3.40;1.27;;;11.40;99.90;;;;;;4972458;28;20030;-82
2023/03/24 00:50:49;;;;;;;1.80;1.10;;;11.30;99.90;;;;;;4961567;28;20180;-83
2023/03/24 00:53:15;;;;;;;2.03;1.10;;;11.40;99.90;;;;;;4969210;28;20045;-82
2023/03/24 00:55:45;;;;;;;3.53;1.30;;;11.40;99.90;;;;;;4974722;28;20030;-83
2023/03/24 00:58:16;;;;;;;3.20;1.48;;;11.40;99.90;;;;;;4986664;28;20111;-82
2023/03/24 01:00:46;;;;;;;3.08;1.60;;;11.40;99.90;;;;;;4956393;28;20876;-82
2023/03/24 01:03:11;;;;;;;2.83;1.05;;;11.40;99.90;;;;;;4963680;28;20433;-82
2023/03/24 01:05:37;;;;;;;2.92;1.50;;;11.40;99.90;;;;;;4973801;28;20168;-82
2023/03/24 01:08:03;;;;;;;2.20;1.50;;;11.40;99.90;;;;;;4960481;28;20501;-82
2023/03/24 01:10:30;;;;;;;3.25;1.40;;;11.40;99.90;;;;;;4958699;28;24642;-82
2023/03/24 01:12:57;;;;;;;4.38;1.80;;;11.40;99.90;;;;;;4953289;28;20487;-82
2023/03/24 01:15:25;;;;;;;1.55;1.15;;;11.40;99.90;;;;;;4974996;28;20036;-82
2023/03/24 01:17:52;;;;;;;2.92;1.58;;;11.40;99.90;;;;;;4958735;28;20030;-82
2023/03/24 01:20:17;;;;;;;2.58;1.60;;;11.40;99.90;;;;;;4957238;28;20113;-82
2023/03/24 01:22:43;;;;;;;3.65;1.35;;;11.40;99.90;;;;;;4951471;28;20538;-82
2023/03/24 01:25:22;;;;;;;3.20;1.90;;;11.50;99.90;;;;;;4981177;28;20038;-80
2023/03/24 01:27:48;;;;;;;3.33;1.42;;;11.50;99.90;;;;;;4976076;28;20099;-83
2023/03/24 01:30:16;;;;;;;2.47;1.45;;;11.50;99.90;;;;;;4953698;28;20083;-83
2023/03/24 01:32:42;;;;;;;3.75;1.42;;;11.50;99.90;;;;;;4970019;28;20037;-82
2023/03/24 01:35:08;;;;;;;1.55;1.40;;;11.50;99.90;;;;;;4967378;28;20041;-83
2023/03/24 01:37:34;;;;;;;3.75;1.80;;;11.50;99.90;;;;;;4958202;28;20037;-83
2023/03/24 01:39:59;;;;;;;2.47;1.88;;;11.50;99.90;;;;;;4971734;28;20120;-82
2023/03/24 01:42:26;;;;;;;1.67;0.90;;;11.50;99.90;;;;;;4981899;28;20089;-83
2023/03/24 01:44:56;;;;;;;2.35;1.65;;;11.60;99.90;;;;;;4970061;28;20125;-82
2023/03/24 01:47:22;;;;;;;1.67;1.20;;;11.50;99.90;;;;;;4984060;28;20128;-82
2023/03/24 01:49:55;;;;;;;2.35;1.85;;;11.50;99.90;;;;;;4967906;28;20133;-83
2023/03/24 01:52:28;;;;;;;2.90;2.10;;;11.50;99.90;;;;;;4973515;28;20033;-82
2023/03/24 01:55:06;;;;;;;3.20;2.33;;;11.50;99.90;;;;;;4970052;28;20129;-83
2023/03/24 01:57:35;;;;;;;3.88;2.00;;;11.50;99.90;;;;;;4963222;28;20049;-83
2023/03/24 02:00:04;;;;;;;3.63;1.80;;;11.50;99.90;;;;;;4972979;28;20398;-82
2023/03/24 02:02:33;;;;;;;4.32;2.15;;;11.50;99.90;;;;;;4970390;28;20053;-82
2023/03/24 02:05:02;;;;;;;5.22;2.88;;;11.50;99.90;;;;;;4986925;28;20046;-83
2023/03/24 02:07:55;;;;;;;7.40;2.15;;;11.50;99.90;;;;;;4957454;28;20406;-82
2023/03/24 02:10:21;;;;;;;3.05;2.17;;;11.50;99.90;;;;;;4995906;28;20041;-82
2023/03/24 02:12:47;;;;;;;5.72;2.45;;;11.50;99.90;;;;;;4965402;28;20030;-82
2023/03/24 02:15:14;;;;;;;5.65;2.00;;;11.50;99.90;;;;;;4950533;28;20409;-82
2023/03/24 02:18:06;;;;;;;5.00;2.38;;;11.50;99.90;;;;;;4957250;28;20437;-81
2023/03/24 02:20:47;;;;;;;4.47;2.42;;;11.50;99.90;;;;;;4975360;28;20033;-83
2023/03/24 02:23:27;;;;;;;1.88;1.45;;;11.50;99.90;;;;;;4999845;28;20034;-82
2023/03/24 02:26:26;;;;;;;4.07;1.83;;;11.50;99.90;;;;;;4983321;28;20688;-82
2023/03/24 02:29:06;;;;;;;4.05;2.08;;;11.50;99.90;;;;;;4950214;28;20124;-82
2023/03/24 02:31:51;;;;;;;3.63;2.42;;;11.50;99.90;;;;;;4998300;28;20483;-82
2023/03/24 02:34:29;;;;;;;3.25;2.03;;;11.60;99.90;;;;;;4980879;28;20474;-81
2023/03/24 02:37:31;;;;;;;6.00;2.47;;;11.60;99.90;;;;;;4990417;28;20510;-82
2023/03/24 02:40:12;;;;;;;2.55;1.40;;;11.50;99.90;;;;;;4978219;28;20034;-83
2023/03/24 02:42:48;;;;;;;5.40;2.58;;;11.60;99.90;;;;;;4989739;28;20088;-82
2023/03/24 02:45:36;;;;;;;3.38;2.33;;;11.60;99.90;;;;;;4971616;28;20033;-82
2023/03/24 02:48:26;;;;;;;4.55;2.22;;;11.60;99.90;;;;;;4991375;28;20109;-83
2023/03/24 02:51:15;;;;;;;2.88;1.83;;;11.60;99.90;;;;;;4969961;28;20421;-82
2023/03/24 02:54:06;;;;;;;3.40;2.35;;;11.60;99.90;;;;;;4988435;28;20056;-82
2023/03/24 02:57:05;;;;;;;3.17;1.50;;;11.60;99.90;;;;;;4971248;28;20030;-83
2023/03/24 02:59:30;;;;;;;3.63;2.00;;;11.60;99.90;;;;;;4990508;28;20402;-83
2023/03/24 03:02:30;;;;;;;3.53;2.10;;;11.60;99.90;;;;;;4983471;28;20033;-82
2023/03/24 03:04:59;;;;;;;3.10;2.00;;;11.60;99.90;;;;;;4929848;28;20064;-82
2023/03/24 03:07:25;;;;;;;2.58;1.60;;;11.60;99.90;;;;;;4957589;28;20099;-82
2023/03/24 03:09:56;;;;;;;4.85;2.70;;;11.60;99.90;;;;;;4974675;28;20048;-82
2023/03/24 03:12:24;;;;;;;4.28;2.05;;;11.70;99.90;;;;;;4970666;28;20487;-82
2023/03/24 03:15:18;;;;;;;1.85;1.60;;;11.70;99.90;;;;;;4950200;28;20648;-83
2023/03/24 03:18:06;;;;;;;2.20;1.70;;;11.70;99.90;;;;;;4976532;28;20029;-82
2023/03/24 03:20:35;;;;;;;3.08;1.90;;;11.70;99.90;;;;;;4977944;28;20401;-82
2023/03/24 03:23:06;;;;;;;3.45;1.83;;;11.70;99.90;;;;;;4975692;28;20461;-83
2023/03/24 03:25:35;;;;;;;4.40;2.22;;;11.80;99.90;;;;;;4953997;28;20045;-82
2023/03/24 03:28:02;;;;;;;1.67;1.40;;;11.80;99.90;;;;;;4982393;28;20037;-83
2023/03/24 03:30:36;;;;;;;4.70;1.65;;;11.80;99.90;;;;;;4959088;28;20437;-82
2023/03/24 03:33:08;;;;;;;5.28;2.78;;;11.80;99.90;;;;;;4955771;28;20057;-78
2023/03/24 03:35:38;;;;;;;1.65;1.20;;;11.90;99.90;;;;;;4971570;28;20037;-77
2023/03/24 03:38:07;;;;;;;2.85;1.80;;;11.90;99.90;;;;;;4962275;28;20031;-78
2023/03/24 03:40:36;;;;;;;3.25;1.83;;;11.90;99.90;;;;;;4968274;28;20052;-78
2023/03/24 03:43:02;;;;;;;2.10;1.77;;;11.90;99.90;;;;;;4973918;28;20592;-78
2023/03/24 03:45:27;;;;;;;3.22;2.00;;;11.90;99.90;;;;;;4966509;28;20049;-77
2023/03/24 03:47:53;;;;;;;3.65;2.08;;;11.90;99.90;;;;;;4952978;28;20038;-77
2023/03/24 03:50:19;;;;;;;4.30;1.65;;;11.90;99.90;;;;;;4990065;28;20034;-82
2023/03/24 03:52:44;;;;;;;3.28;2.47;;;12.00;99.90;;;;;;4971759;28;20096;-82
2023/03/24 03:55:10;;;;;;;1.50;1.27;;;12.00;99.90;;;;;;4969880;28;20516;-82
2023/03/24 03:57:36;;;;;;;2.67;2.20;;;12.00;99.90;;;;;;4981310;28;20478;-83
2023/03/24 04:00:06;;;;;;;2.85;2.55;;;12.00;99.90;;;;;;4961263;28;20042;-83
2023/03/24 04:02:59;;;;;;;4.05;2.45;;;12.00;99.90;;;;;;4975146;28;20041;-83
2023/03/24 04:05:25;;;;;;;4.75;2.92;;;11.90;99.90;;;;;;5002968;28;20578;-82
2023/03/24 04:08:12;;;;;;;2.60;2.17;;;11.90;99.90;;;;;;5004563;28;20026;-83
2023/03/24 04:10:52;;;;;;;4.22;3.25;;;11.90;99.90;;;;;;4995862;28;20037;-82
2023/03/24 04:13:32;;;;;;;3.33;2.72;;;11.90;99.90;;;;;;5003269;28;20034;-82
2023/03/24 04:16:02;;;;;;;2.58;1.98;;;11.90;99.90;;;;;;4989047;28;20041;-82
2023/03/24 04:18:42;;;;;;;7.88;2.60;;;11.90;99.90;;;;;;4970534;28;20120;-82
2023/03/24 04:21:32;;;;;;;2.22;1.63;;;11.80;99.90;;;;;;4975152;28;20062;-82
2023/03/24 04:24:49;;;;;;;3.40;2.47;;;11.80;99.90;;;;;;4989202;28;20038;-83
2023/03/24 04:27:55;;;;;;;11.95;1.65;;;11.90;99.90;;;;;;4944989;28;20026;-82
2023/03/24 04:30:29;;;;;;;1.45;1.35;;;11.80;99.90;;;;;;4993970;28;20044;-82
2023/03/24 04:33:02;;;;;;;2.17;1.65;;;11.80;99.90;;;;;;4990322;28;20569;-84
2023/03/24 04:35:32;;;;;;;5.80;1.73;;;11.80;99.90;;;;;;4979886;28;20061;-83
2023/03/24 04:38:03;;;;;;;2.42;1.42;;;11.80;99.90;;;;;;4956055;28;20065;-82
2023/03/24 04:40:31;;;;;;;4.95;1.95;;;11.80;99.90;;;;;;4974555;28;20482;-83
2023/03/24 04:42:57;;;;;;;1.20;1.10;;;11.80;99.90;;;;;;4967249;28;20133;-83
2023/03/24 04:45:24;;;;;;;2.35;1.60;;;11.80;99.90;;;;;;4955569;28;20109;-83
2023/03/24 04:47:52;;;;;;;1.73;1.27;;;11.80;99.90;;;;;;4971246;28;20049;-83
2023/03/24 04:50:35;;;;;;;4.65;2.25;;;11.80;99.90;;;;;;4957002;28;20037;-84
2023/03/24 04:53:02;;;;;;;2.22;1.40;;;11.80;99.90;;;;;;4986922;28;20030;-83
2023/03/24 04:55:49;;;;;;;1.45;1.35;;;11.80;99.90;;;;;;4996118;28;20044;-84
2023/03/24 04:58:18;;;;;;;4.30;1.95;;;11.80;99.90;;;;;;4993246;28;20085;-84
2023/03/24 05:00:44;;;;;;;1.52;1.17;;;11.70;99.90;;;;;;4970990;28;20031;-84
2023/03/24 05:03:13;;;;;;;1.45;1.13;;;11.70;99.90;;;;;;4987728;28;20517;-84
2023/03/24 05:05:40;;;;;;;2.45;1.13;;;11.60;99.90;;;;;;4974707;28;20112;-84
2023/03/24 05:08:07;;;;;;;2.40;1.85;;;11.60;99.90;;;;;;4963805;28;20475;-84
2023/03/24 05:10:33;;;;;;;1.55;1.10;;;11.60;99.90;;;;;;4976051;28;20549;-84
2023/03/24 05:12:58;;;;;;;1.85;1.67;;;11.60;99.90;;;;;;4974910;28;20035;-83
2023/03/24 05:15:24;;;;;;;2.78;1.20;;;11.60;99.90;;;;;;4975918;28;20041;-84
2023/03/24 05:17:51;;;;;;;1.52;1.20;;;11.60;99.90;;;;;;4977030;28;20548;-84
2023/03/24 05:20:17;;;;;;;1.73;1.50;;;11.60;99.90;;;;;;4996749;28;20033;-82
2023/03/24 05:22:42;;;;;;;2.25;1.10;;;11.50;99.90;;;;;;4967551;28;20037;-84
2023/03/24 05:25:08;;;;;;;1.42;1.33;;;11.50;99.90;;;;;;4957691;28;20045;-84
2023/03/24 05:27:34;;;;;;;2.83;1.65;;;11.50;99.90;;;;;;5005208;28;20035;-84
2023/03/24 05:29:59;;;;;;;1.92;1.60;;;11.50;99.90;;;;;;4991769;28;20104;-84
2023/03/24 05:32:25;;;;;;;2.60;1.42;;;11.40;99.90;;;;;;4961848;28;20030;-83
2023/03/24 05:34:50;;;;;;;3.25;2.20;;;11.50;99.90;;;;;;4970071;28;20045;-83
2023/03/24 05:37:16;;;;;;;3.63;1.83;;;11.40;99.90;;;;;;4970836;28;20030;-84
2023/03/24 05:39:42;;;;;;;2.97;1.88;;;11.40;99.90;;;;;;4959296;28;20038;-83
2023/03/24 05:42:09;;;;;;;3.58;1.95;;;11.40;99.90;;;;;;4965965;28;20052;-83
2023/03/24 05:44:34;;;;;;;3.63;1.80;;;11.20;99.90;;;;;;4975567;28;20096;-84
2023/03/24 05:47:00;;;;;;;4.60;1.70;;;11.20;99.90;;;;;;4970626;28;20038;-85
2023/03/24 05:49:25;;;;;;;5.65;1.30;;;11.20;99.90;;;;;;4969576;28;20039;-84
2023/03/24 05:51:51;;;;;;;4.28;0.98;;;11.10;99.90;;;;;;4952040;28;20592;-83
2023/03/24 05:54:16;;;;;;;3.83;1.30;;;11.10;99.90;;;;;;4989532;28;20486;-84
2023/03/24 05:56:42;;;;;;;4.72;1.63;;;11.00;99.90;;;;;;4969871;28;20410;-83
2023/03/24 05:59:07;;;;;;;1.65;1.17;;;10.90;99.90;;;;;;4985521;28;20517;-83
2023/03/24 06:01:33;;;;;;;3.33;1.52;;;10.80;99.90;;;;;;4959785;28;20033;-83
2023/03/24 06:04:00;;;;;;;9.40;1.67;;;10.70;99.90;;;;;;4970695;28;20036;-82
2023/03/24 06:06:27;;;;;;;2.80;1.58;;;10.70;99.90;;;;;;4964291;28;20461;-82
2023/03/24 06:08:57;;;;;;;4.40;1.23;;;10.70;99.90;;;;;;4961064;28;20269;-82
2023/03/24 06:11:23;;;;;;;3.70;1.60;;;10.70;99.90;;;;;;4981896;28;20032;-82
2023/03/24 06:13:49;;;;;;;5.10;1.50;;;10.70;99.90;;;;;;4989457;28;20034;-82
2023/03/24 06:16:17;;;;;;;2.88;1.45;;;10.70;99.90;;;;;;4967836;28;20030;-80
2023/03/24 06:18:51;;;;;;;4.10;1.73;;;10.70;99.90;;;;;;4964334;28;20117;-79
2023/03/24 06:21:17;;;;;;;3.92;1.55;;;10.70;99.90;;;;;;4965090;28;20092;-79
2023/03/24 06:23:43;;;;;;;7.10;1.90;;;10.60;99.90;;;;;;4959401;28;20038;-79
2023/03/24 06:26:10;;;;;;;2.47;1.42;;;10.60;99.90;;;;;;4980888;28;20030;-80
2023/03/24 06:28:38;;;;;;;4.68;1.38;;;10.60;99.90;;;;;;4984303;28;20037;-79
2023/03/24 06:31:05;;;;;;;7.05;2.15;;;10.40;99.90;;;;;;4984129;28;20089;-80
2023/03/24 06:33:30;;;;;;;1.45;1.08;;;10.40;99.90;;;;;;4961440;28;20389;-80
2023/03/24 06:35:56;;;;;;;4.70;1.70;;;10.40;99.90;;;;;;4960980;28;20129;-79
2023/03/24 06:38:21;;;;;;;6.00;1.55;;;10.40;99.90;;;;;;4953767;28;20073;-80
2023/03/24 06:40:47;;;;;;;4.15;1.55;;;10.40;99.90;;;;;;4989099;28;20116;-81
2023/03/24 06:43:14;;;;;;;5.15;1.30;;;10.30;99.90;;;;;;4996970;28;20041;-80
2023/03/24 06:45:39;;;;;;;2.05;1.00;;;10.20;99.90;;;;;;4990569;28;20124;-81
2023/03/24 06:48:07;;;;;;;1.98;0.70;;;10.30;99.90;;;;;;4968165;28;20040;-81
2023/03/24 06:50:34;;;;;;;3.28;1.25;;;10.40;99.90;;;;;;4951287;28;20614;-80
2023/03/24 06:53:03;;;;;;;1.85;1.00;;;10.30;99.90;;;;;;4960244;28;20487;-79
2023/03/24 06:55:28;;;;;;;2.78;0.85;;;10.30;99.90;;;;;;4953108;28;20060;-79
2023/03/24 06:57:54;;;;;;;6.43;1.30;;;10.50;99.90;;;;;;4966287;28;20034;-80
2023/03/24 07:00:20;;;;;;;4.32;1.55;;;10.50;99.90;;;;;;4969085;28;20118;-80
2023/03/24 07:02:46;;;;;;;2.33;0.95;;;10.50;99.90;;;;;;4965927;28;20388;-79
2023/03/24 07:05:12;;;;;;;2.40;0.75;;;10.50;99.90;;;;;;4954563;28;20041;-80
2023/03/24 07:07:37;;;;;;;6.82;2.00;;;10.50;99.90;;;;;;4973176;28;20037;-80
2023/03/24 07:10:03;;;;;;;7.00;2.25;;;10.40;99.90;;;;;;4991429;28;20035;-80
2023/03/24 07:12:29;;;;;;;10.52;2.08;;;10.50;99.90;;;;;;4975151;28;20080;-79
2023/03/24 07:14:56;;;;;;;6.32;1.40;;;10.50;99.90;;;;;;4986015;28;20039;-79
2023/03/24 07:17:22;;;;;;;8.88;1.80;;;10.50;99.90;;;;;;4978388;28;20058;-79
2023/03/24 07:19:48;;;;;;;3.72;0.82;;;10.50;99.90;;;;;;4961508;28;20035;-77
2023/03/24 07:22:14;;;;;;;2.83;1.00;;;10.50;99.90;;;;;;4980244;28;20084;-79
2023/03/24 07:24:40;;;;;;;6.28;1.00;;;10.60;99.90;;;;;;4971266;28;20061;-80
2023/03/24 07:27:06;;;;;;;3.70;0.85;;;10.60;99.90;;;;;;4987354;28;20046;-79
2023/03/24 07:29:32;;;;;;;4.65;0.98;;;10.50;99.90;;;;;;4963914;28;20041;-80
2023/03/24 07:31:59;;;;;;;4.55;1.20;;;10.70;99.90;;;;;;4989658;28;20033;-79
2023/03/24 07:34:26;;;;;;;4.25;0.98;;;10.70;99.90;;;;;;4960694;28;20058;-79
2023/03/24 07:36:51;;;;;;;3.20;1.20;;;10.80;99.90;;;;;;4973275;28;20037;-79
2023/03/24 07:39:18;;;;;;;6.95;1.95;;;10.90;99.90;;;;;;4972817;28;20025;-79
2023/03/24 07:41:44;;;;;;;5.47;0.73;;;11.00;99.90;;;;;;4974702;28;20038;-79
2023/03/24 07:44:09;;;;;;;3.10;0.50;;;11.00;99.90;;;;;;4993827;28;20043;-79
2023/03/24 07:46:35;;;;;;;7.18;1.10;;;11.00;99.90;;;;;;4992665;28;20041;-80
2023/03/24 07:49:01;;;;;;;7.95;1.23;;;11.00;99.90;;;;;;4978127;28;20027;-80
2023/03/24 07:51:27;;;;;;;6.45;0.98;;;11.20;99.90;;;;;;4975111;28;20036;-78
2023/03/24 07:53:53;;;;;;;14.80;1.60;;;11.20;99.90;;;;;;4956636;28;20039;-79
2023/03/24 07:56:18;;;;;;;8.35;1.10;;;11.40;99.90;;;;;;4961234;28;20029;-79
2023/03/24 07:58:44;;;;;;;6.18;0.93;;;11.30;99.90;;;;;;4977168;28;20025;-79
2023/03/24 08:01:10;;;;;;;4.45;0.93;;;11.30;99.90;;;;;;4982178;28;20030;-79
2023/03/24 08:03:36;;;;;;;2.75;0.57;;;11.50;99.90;;;;;;4993435;28;20042;-79
2023/03/24 08:06:06;;;;;;;3.40;0.55;;;11.50;99.90;;;;;;4968136;28;20038;-79
2023/03/24 08:08:32;;;;;;;5.03;0.65;;;11.70;99.90;;;;;;4978558;28;20512;-78
2023/03/24 08:10:58;;;;;;;4.18;0.80;;;11.90;99.90;;;;;;4968936;28;20034;-79
2023/03/24 08:13:23;;;;;;;6.43;0.95;;;11.90;99.90;;;;;;4987161;28;20064;-80
2023/03/24 08:15:50;;;;;;;4.55;1.02;;;12.00;99.90;;;;;;4965018;28;20049;-79
2023/03/24 08:18:15;;;;;;;6.38;1.85;;;12.10;99.90;;;;;;4961553;28;20030;-79
2023/03/24 08:20:41;;;;;;;16.55;1.17;;;12.20;99.90;;;;;;4989585;28;20038;-79
2023/03/24 08:23:07;;;;;;;4.28;1.40;;;12.20;99.90;;;;;;4965517;28;20657;-79
2023/03/24 08:25:33;;;;;;;3.85;0.98;;;12.20;99.90;;;;;;4972755;28;20034;-80
2023/03/24 08:27:59;;;;;;;1.77;0.70;;;12.20;99.90;;;;;;4955182;28;20048;-78
2023/03/24 08:30:25;;;;;;;6.13;1.00;;;12.40;99.90;;;;;;4988809;28;20038;-78
2023/03/24 08:32:52;;;;;;;4.28;1.10;;;12.50;99.90;;;;;;4990529;28;20497;-79
2023/03/24 08:35:20;;;;;;;4.40;1.05;;;12.60;99.90;;;;;;4965624;28;20417;-78
2023/03/24 08:37:45;;;;;;;2.92;0.85;;;12.90;99.90;;;;;;4980337;28;20029;-78
2023/03/24 08:40:16;;;;;;;8.05;1.73;;;13.10;99.90;;;;;;4988395;28;20044;-77
2023/03/24 08:42:41;;;;;;;4.45;0.90;;;13.40;99.90;;;;;;4981875;28;20046;-79
2023/03/24 08:45:08;;;;;;;3.17;0.75;;;13.50;99.90;;;;;;4962210;28;20497;-79
2023/03/24 08:47:34;;;;;;;3.45;0.82;;;13.50;99.90;;;;;;4980007;28;20044;-78
2023/03/24 08:49:59;;;;;;;2.55;0.80;;;13.20;99.90;;;;;;4975725;28;20429;-79
2023/03/24 08:52:25;;;;;;;10.40;1.63;;;13.30;99.90;;;;;;4992430;28;20048;-78
2023/03/24 08:54:51;;;;;;;6.72;0.75;;;13.00;99.90;;;;;;4990229;28;20442;-78
2023/03/24 08:57:16;;;;;;;4.15;1.30;;;13.10;99.90;;;;;;4984178;28;20038;-77
2023/03/24 08:59:42;;;;;;;4.60;1.23;;;13.20;99.90;;;;;;4983593;28;20039;-78
2023/03/24 09:02:10;;;;;;;14.73;0.98;;;13.30;99.90;;;;;;4991164;28;20037;-78
2023/03/24 09:04:36;;;;;;;5.95;1.23;;;13.20;99.90;;;;;;4996561;28;20048;-78
2023/03/24 09:07:02;;;;;;;4.32;0.95;;;13.40;99.90;;;;;;4974296;28;20033;-78
2023/03/24 09:09:28;;;;;;;3.17;1.27;;;13.60;99.90;;;;;;4976389;28;20795;-79
2023/03/24 09:11:55;;;;;;;8.57;1.42;;;13.80;99.90;;;;;;4973009;28;20628;-79
2023/03/24 09:14:21;;;;;;;4.25;1.02;;;13.60;99.90;;;;;;4957564;28;20037;-78
2023/03/24 09:16:49;;;;;;;7.63;1.65;;;13.60;99.90;;;;;;4959856;28;20036;-78
2023/03/24 09:19:15;;;;;;;6.63;1.60;;;13.80;99.90;;;;;;4973463;28;20485;-78
2023/03/24 09:21:42;;;;;;;8.65;1.65;;;14.00;99.90;;;;;;4991318;28;20033;-78
2023/03/24 09:24:07;;;;;;;7.55;1.40;;;13.90;99.90;;;;;;4987873;28;20406;-78
2023/03/24 09:26:33;;;;;;;12.82;1.88;;;14.10;99.90;;;;;;4972390;28;20060;-78
2023/03/24 09:28:59;;;;;;;6.15;1.38;;;14.00;99.90;;;;;;4970437;28;20085;-78
2023/03/24 09:31:25;;;;;;;5.07;1.63;;;14.10;99.90;;;;;;4986394;28;20030;-77
2023/03/24 09:33:51;;;;;;;4.03;1.13;;;14.40;99.90;;;;;;4968350;28;20031;-78
2023/03/24 09:36:17;;;;;;;6.57;1.75;;;14.60;99.90;;;;;;4959598;28;20037;-76
2023/03/24 09:38:42;;;;;;;8.27;1.67;;;14.60;99.90;;;;;;4984729;28;20030;-78
2023/03/24 09:41:20;;;;;;;9.77;1.90;;;14.80;99.90;;;;;;5003168;28;20122;-77
2023/03/24 09:43:56;;;;;;;4.70;0.93;;;15.20;99.90;;;;;;4978713;28;20544;-78
2023/03/24 09:46:28;;;;;;;;;;;15.20;99.90;;;;;;5009544;28;20038;-78
2023/03/24 09:48:56;;;;;;;13.23;2.42;;;15.30;99.90;;;;;;4991239;28;20537;-78
2023/03/24 09:51:26;;;;;;;8.63;1.15;;;15.30;99.90;;;;;;4986024;28;20520;-78
2023/03/24 09:53:56;;;;;;;5.65;1.67;;;15.20;99.90;;;;;;4982120;28;20146;-78
2023/03/24 09:56:22;;;;;;;8.02;1.30;;;15.40;99.90;;;;;;4985687;28;20473;-78
2023/03/24 09:59:03;;;;;;;7.03;1.17;;;15.50;99.90;;;;;;4951502;28;20045;-78
2023/03/24 10:01:29;;;;;;;4.47;0.70;;;15.60;99.90;;;;;;4961713;28;20108;-78
2023/03/24 10:03:56;;;;;;;4.25;1.00;;;15.70;99.90;;;;;;4977221;28;20117;-78
2023/03/24 10:06:27;;;;;;;12.52;1.27;;;15.80;99.90;;;;;;4971444;28;20139;-78
2023/03/24 10:09:16;;;;;;;5.90;1.23;;;15.90;99.90;;;;;;4975853;28;20479;-78
2023/03/24 10:11:49;;;;;;;5.03;1.27;;;15.90;99.90;;;;;;4977188;28;20046;-77
2023/03/24 10:14:45;;;;;;;2.78;0.80;;;16.10;99.90;;;;;;4977721;28;20036;-77
2023/03/24 10:17:17;;;;;;;2.38;0.88;;;16.00;99.90;;;;;;4976223;28;20046;-78
2023/03/24 10:19:51;;;;;;;10.05;1.13;;;16.00;99.90;;;;;;5007303;28;20026;-77
2023/03/24 10:22:19;;;;;;;5.82;0.93;;;15.90;99.90;;;;;;4994349;28;20371;-77
2023/03/24 10:24:50;;;;;;;9.95;1.85;;;15.90;99.90;;;;;;4978002;28;20426;-78
2023/03/24 10:27:33;;;;;;;8.07;1.50;;;15.80;99.90;;;;;;4975693;28;20038;-78
2023/03/24 10:30:18;;;;;;;5.45;0.90;;;15.80;99.90;;;;;;4975094;28;20382;-77
2023/03/24 10:32:44;;;;;;;3.90;1.15;;;15.80;99.90;;;;;;4975615;28;20030;-77
2023/03/24 10:35:37;;;;;;;6.95;1.08;;;15.80;99.90;;;;;;4959853;28;20105;-78
2023/03/24 10:38:08;;;;;;;8.63;1.27;;;15.90;99.90;;;;;;4993028;28;20108;-77
2023/03/24 10:40:33;;;;;;;6.40;1.23;;;15.90;99.90;;;;;;4964404;28;20031;-77
2023/03/24 10:43:02;;;;;;;8.23;1.33;;;15.90;99.90;;;;;;4955580;28;20077;-77
2023/03/24 10:45:48;;;;;;;5.28;0.90;;;15.80;99.90;;;;;;4970795;28;20034;-77
2023/03/24 10:48:32;;;;;;;5.85;0.80;;;15.80;99.90;;;;;;4987213;28;20057;-77
2023/03/24 10:50:57;;;;;;;3.42;0.90;;;15.90;99.90;;;;;;4970803;28;20504;-77
2023/03/24 10:53:23;;;;;;;12.45;1.20;;;16.00;99.90;;;;;;4952992;28;20033;-77
2023/03/24 10:55:49;;;;;;;4.95;0.98;;;16.10;99.90;;;;;;4983583;28;20038;-77
2023/03/24 10:58:50;;;;;;;2.72;0.82;;;16.20;99.90;;;;;;4974661;28;20624;-77
2023/03/24 11:01:26;;;;;;;10.07;1.52;;;16.20;99.90;;;;;;4905891;29;20119;-77
2023/03/24 11:03:57;;;;;;;9.77;1.30;;;16.40;99.90;;;;;;4958188;28;20034;-77
2023/03/24 11:06:23;;;;;;;4.50;0.90;;;16.30;99.90;;;;;;4974550;28;20060;-78
2023/03/24 11:09:10;;;;;;;6.15;1.23;;;16.20;99.90;;;;;;4989939;28;20054;-77
2023/03/24 11:11:36;;;;;;;5.55;0.80;;;16.30;99.90;;;;;;4971772;28;20046;-77
2023/03/24 11:14:02;;;;;;;11.70;1.90;;;16.10;99.90;;;;;;4955213;28;20126;-77
2023/03/24 11:16:34;;;;;;;3.00;0.90;;;16.40;99.90;;;;;;4964800;28;20026;-77
2023/03/24 11:19:04;;;;;;;9.25;1.45;;;16.50;99.90;;;;;;4950297;28;20037;-78
2023/03/24 11:21:31;;;;;;;12.80;1.52;;;16.40;99.90;;;;;;4991650;28;20489;-78
2023/03/24 11:24:01;;;;;;;5.28;1.50;;;16.70;99.90;;;;;;4972582;28;20034;-77
2023/03/24 11:26:33;;;;;;;6.88;1.30;;;16.60;99.90;;;;;;4983268;28;20030;-78
2023/03/24 11:29:17;;;;;;;5.45;0.98;;;16.60;99.90;;;;;;4969587;28;20031;-77
2023/03/24 11:31:45;;;;;;;5.45;0.85;;;16.60;99.90;;;;;;4954531;28;20830;-77
2023/03/24 11:34:19;;;;;;;6.20;1.05;;;17.00;99.90;;;;;;4949627;28;20382;-78
2023/03/24 11:36:55;;;;;;;6.10;1.38;;;16.80;99.90;;;;;;4989498;28;20100;-78
2023/03/24 11:39:28;;;;;;;3.45;1.08;;;16.90;99.90;;;;;;4981145;28;20027;-78
2023/03/24 11:42:13;;;;;;;3.22;0.90;;;17.20;99.90;;;;;;4988080;28;20046;-77
2023/03/24 11:44:51;;;;;;;2.83;1.02;;;17.50;99.90;;;;;;4998278;28;20400;-77
2023/03/24 11:47:36;;;;;;;9.23;1.58;;;17.70;99.90;;;;;;4978382;28;20033;-77
2023/03/24 11:50:04;;;;;;;3.97;0.82;;;17.80;99.90;;;;;;4999186;28;20026;-78
2023/03/24 11:52:33;;;;;;;9.43;1.70;;;17.50;99.90;;;;;;5010916;28;20022;-77
2023/03/24 11:54:58;;;;;;;4.60;0.75;;;17.90;99.90;;;;;;4993212;28;20037;-77
2023/03/24 11:57:47;;;;;;;4.07;1.63;;;17.80;99.90;;;;;;4972727;28;20027;-77
2023/03/24 12:00:20;;;;;;;5.28;1.20;;;17.80;99.90;;;;;;4971454;28;20525;-77
2023/03/24 12:03:19;;;;;;;5.32;1.25;;;17.50;99.90;;;;;;4986521;28;20057;-78
2023/03/24 12:05:49;;;;;;;7.95;1.73;;;17.50;99.90;;;;;;4990759;28;20645;-77
2023/03/24 12:08:18;;;;;;;6.43;1.27;;;17.50;99.90;;;;;;4974214;28;20079;-77
2023/03/24 12:11:09;;;;;;;4.75;0.70;;;17.50;99.90;;;;;;4978321;28;20037;-77
2023/03/24 12:13:36;;;;;;;2.83;0.80;;;17.40;99.90;;;;;;4963473;28;20033;-80
2023/03/24 12:16:06;;;;;;;6.25;1.15;;;17.60;99.90;;;;;;4972702;28;20030;-81
2023/03/24 12:18:46;;;;;;;2.38;0.70;;;17.50;99.90;;;;;;4976070;28;20034;-81
2023/03/24 12:21:21;;;;;;;3.97;1.10;;;17.60;99.90;;;;;;4985464;28;20038;-83
2023/03/24 12:23:56;;;;;;;6.00;1.17;;;17.60;99.90;;;;;;4961049;28;20041;-82
2023/03/24 12:26:22;;;;;;;5.03;1.48;;;17.60;99.90;;;;;;4998646;28;20026;-81
2023/03/24 12:28:51;;;;;;;4.20;1.13;;;17.50;99.90;;;;;;4996306;28;20037;-80
2023/03/24 12:31:23;;;;;;;5.80;1.40;;;17.50;99.90;;;;;;5009913;28;20117;-82
2023/03/24 12:33:57;;;;;;;4.07;1.23;;;17.40;99.90;;;;;;5002251;28;20129;-82
2023/03/24 12:36:40;;;;;;;6.82;1.08;;;17.50;99.90;;;;;;4986694;28;20050;-81
2023/03/24 12:39:28;;;;;;;4.10;1.17;;;17.50;99.90;;;;;;4995542;28;20031;-82
2023/03/24 12:41:55;;;;;;;7.13;1.48;;;17.60;99.90;;;;;;4971922;28;20052;-81
2023/03/24 12:44:48;;;;;;;5.55;1.25;;;17.80;99.90;;;;;;5020701;28;20095;-82
2023/03/24 12:47:44;;;;;;;4.47;1.35;;;17.80;99.90;;;;;;4982620;28;20041;-82
2023/03/24 12:50:37;;;;;;;6.47;1.58;;;17.80;99.90;;;;;;4987787;28;20033;-81
2023/03/24 12:53:26;;;;;;;2.20;1.10;;;18.00;99.90;;;;;;5002594;28;20038;-82
2023/03/24 12:56:14;;;;;;;1.85;1.02;;;18.20;99.90;;;;;;4960115;28;20022;-81
2023/03/24 12:59:16;;;;;;;3.30;0.68;;;18.40;99.90;;;;;;4988165;28;20026;-81
2023/03/24 13:01:43;;;;;;;4.97;1.33;;;18.30;99.90;;;;;;4971918;28;20515;-80
2023/03/24 13:04:29;;;;;;;5.35;1.20;;;18.50;99.90;;;;;;4945706;28;20031;-81
2023/03/24 13:06:55;;;;;;;7.00;1.50;;;18.40;99.90;;;;;;4978549;28;20117;-80